sensor_id;sensor_type;location;lat;lon;timestamp;pressure;altitude;pressure_sealevel;temperature;humidity
77027;BME280;65956;52.986;17.490;2023-03-01T00:01:42;101768.23;;;-2.70;73.11
77027;BME280;65956;52.986;17.490;2023-03-01T00:04:09;101764.42;;;-2.73;73.17
77027;BME280;65956;52.986;17.490;2023-03-01T00:06:39;101760.91;;;-2.75;73.45
77027;BME280;65956;52.986;17.490;2023-03-01T00:09:07;101763.11;;;-2.76;73.53
77027;BME280;65956;52.986;17.490;2023-03-01T00:11:34;101763.02;;;-2.76;73.62
77027;BME280;65956;52.986;17.490;2023-03-01T00:14:03;101763.61;;;-2.76;73.93
77027;BME280;65956;52.986;17.490;2023-03-01T00:16:36;101764.91;;;-2.77;74.30
77027;BME280;65956;52.986;17.490;2023-03-01T00:19:07;101770.16;;;-2.76;74.29
77027;BME280;65956;52.986;17.490;2023-03-01T00:21:35;101774.66;;;-2.78;74.40
77027;BME280;65956;52.986;17.490;2023-03-01T00:24:03;101777.49;;;-2.81;74.40
77027;BME280;65956;52.986;17.490;2023-03-01T00:26:32;101780.65;;;-2.82;75.08
77027;BME280;65956;52.986;17.490;2023-03-01T00:29:00;101788.57;;;-2.78;75.70
77027;BME280;65956;52.986;17.490;2023-03-01T00:31:29;101790.21;;;-2.74;75.85
77027;BME280;65956;52.986;17.490;2023-03-01T00:33:59;101791.65;;;-2.72;75.18
77027;BME280;65956;52.986;17.490;2023-03-01T00:36:31;101787.41;;;-2.76;74.64
77027;BME280;65956;52.986;17.490;2023-03-01T00:38:59;101784.41;;;-2.79;74.63
77027;BME280;65956;52.986;17.490;2023-03-01T00:41:27;101778.45;;;-2.82;74.72
77027;BME280;65956;52.986;17.490;2023-03-01T00:43:55;101777.38;;;-2.85;74.53
77027;BME280;65956;52.986;17.490;2023-03-01T00:46:25;101775.55;;;-2.87;74.66
77027;BME280;65956;52.986;17.490;2023-03-01T00:48:53;101769.64;;;-2.88;74.56
77027;BME280;65956;52.986;17.490;2023-03-01T00:51:26;101758.25;;;-2.90;74.77
77027;BME280;65956;52.986;17.490;2023-03-01T00:53:57;101748.70;;;-2.87;75.24
77027;BME280;65956;52.986;17.490;2023-03-01T00:56:26;101740.92;;;-2.82;74.98
77027;BME280;65956;52.986;17.490;2023-03-01T00:58:53;101740.19;;;-2.78;74.75
77027;BME280;65956;52.986;17.490;2023-03-01T01:01:23;101738.71;;;-2.77;74.55
77027;BME280;65956;52.986;17.490;2023-03-01T01:03:57;101738.05;;;-2.81;74.63
77027;BME280;65956;52.986;17.490;2023-03-01T01:06:37;101735.48;;;-2.85;74.69
77027;BME280;65956;52.986;17.490;2023-03-01T01:09:06;101726.80;;;-2.89;74.57
77027;BME280;65956;52.986;17.490;2023-03-01T01:11:35;101725.42;;;-2.93;74.69
77027;BME280;65956;52.986;17.490;2023-03-01T01:14:03;101725.02;;;-2.91;74.64
77027;BME280;65956;52.986;17.490;2023-03-01T01:16:30;101717.39;;;-2.90;74.58
77027;BME280;65956;52.986;17.490;2023-03-01T01:18:58;101719.88;;;-2.89;75.06
77027;BME280;65956;52.986;17.490;2023-03-01T01:21:26;101717.89;;;-2.88;74.81
77027;BME280;65956;52.986;17.490;2023-03-01T01:23:54;101708.06;;;-2.88;74.55
77027;BME280;65956;52.986;17.490;2023-03-01T01:26:24;101710.98;;;-2.89;75.04
77027;BME280;65956;52.986;17.490;2023-03-01T01:28:52;101707.41;;;-2.88;75.09
77027;BME280;65956;52.986;17.490;2023-03-01T01:31:20;101709.80;;;-2.87;75.03
77027;BME280;65956;52.986;17.490;2023-03-01T01:33:51;101708.70;;;-2.88;74.48
77027;BME280;65956;52.986;17.490;2023-03-01T01:36:20;101712.90;;;-2.92;74.51
77027;BME280;65956;52.986;17.490;2023-03-01T01:38:47;101699.96;;;-2.96;74.97
77027;BME280;65956;52.986;17.490;2023-03-01T01:41:16;101693.41;;;-3.00;75.04
77027;BME280;65956;52.986;17.490;2023-03-01T01:43:47;101693.21;;;-3.02;75.06
77027;BME280;65956;52.986;17.490;2023-03-01T01:49:01;101679.39;;;-3.00;75.30
77027;BME280;65956;52.986;17.490;2023-03-01T01:51:37;101672.81;;;-2.99;75.49
77027;BME280;65956;52.986;17.490;2023-03-01T01:54:36;101662.88;;;-2.99;75.26
77027;BME280;65956;52.986;17.490;2023-03-01T01:57:11;101656.49;;;-3.00;75.59
77027;BME280;65956;52.986;17.490;2023-03-01T01:59:43;101649.35;;;-3.01;75.52
77027;BME280;65956;52.986;17.490;2023-03-01T02:02:13;101641.19;;;-3.02;75.65
77027;BME280;65956;52.986;17.490;2023-03-01T02:04:41;101641.34;;;-3.03;76.14
77027;BME280;65956;52.986;17.490;2023-03-01T02:07:16;101648.34;;;-3.06;76.80
77027;BME280;65956;52.986;17.490;2023-03-01T02:09:47;101652.34;;;-3.11;76.77
77027;BME280;65956;52.986;17.490;2023-03-01T02:12:23;101660.52;;;-3.18;76.80
77027;BME280;65956;52.986;17.490;2023-03-01T02:14:51;101663.02;;;-3.25;76.65
77027;BME280;65956;52.986;17.490;2023-03-01T02:17:18;101665.27;;;-3.34;76.49
77027;BME280;65956;52.986;17.490;2023-03-01T02:22:46;101650.73;;;-3.39;76.95
77027;BME280;65956;52.986;17.490;2023-03-01T02:30:21;101636.28;;;-3.28;77.24
77027;BME280;65956;52.986;17.490;2023-03-01T02:32:50;101634.97;;;-3.27;77.32
77027;BME280;65956;52.986;17.490;2023-03-01T02:35:19;101634.10;;;-3.28;77.23
77027;BME280;65956;52.986;17.490;2023-03-01T02:37:46;101640.00;;;-3.27;77.33
77027;BME280;65956;52.986;17.490;2023-03-01T02:40:17;101648.11;;;-3.28;77.33
77027;BME280;65956;52.986;17.490;2023-03-01T02:42:50;101652.42;;;-3.31;77.06
77027;BME280;65956;52.986;17.490;2023-03-01T02:45:19;101655.29;;;-3.35;77.12
77027;BME280;65956;52.986;17.490;2023-03-01T02:47:48;101655.98;;;-3.39;77.27
77027;BME280;65956;52.986;17.490;2023-03-01T02:53:45;101659.29;;;-3.49;77.35
77027;BME280;65956;52.986;17.490;2023-03-01T02:56:20;101661.61;;;-3.50;77.48
77027;BME280;65956;52.986;17.490;2023-03-01T02:58:48;101664.22;;;-3.51;77.42
77027;BME280;65956;52.986;17.490;2023-03-01T03:01:19;101666.69;;;-3.50;77.59
77027;BME280;65956;52.986;17.490;2023-03-01T03:03:47;101666.30;;;-3.50;77.19
77027;BME280;65956;52.986;17.490;2023-03-01T03:06:15;101661.95;;;-3.50;77.38
77027;BME280;65956;52.986;17.490;2023-03-01T03:08:43;101664.82;;;-3.48;77.63
77027;BME280;65956;52.986;17.490;2023-03-01T03:11:11;101664.78;;;-3.44;77.26
77027;BME280;65956;52.986;17.490;2023-03-01T03:13:38;101667.23;;;-3.43;77.47
77027;BME280;65956;52.986;17.490;2023-03-01T03:16:15;101668.16;;;-3.45;77.39
77027;BME280;65956;52.986;17.490;2023-03-01T03:18:42;101663.36;;;-3.46;77.16
77027;BME280;65956;52.986;17.490;2023-03-01T03:21:12;101660.30;;;-3.48;77.49
77027;BME280;65956;52.986;17.490;2023-03-01T03:23:39;101654.71;;;-3.49;77.84
77027;BME280;65956;52.986;17.490;2023-03-01T03:26:06;101652.57;;;-3.50;77.94
77027;BME280;65956;52.986;17.490;2023-03-01T03:28:34;101648.04;;;-3.50;77.84
77027;BME280;65956;52.986;17.490;2023-03-01T03:31:02;101645.32;;;-3.50;77.97
77027;BME280;65956;52.986;17.490;2023-03-01T03:33:31;101647.07;;;-3.50;78.26
77027;BME280;65956;52.986;17.490;2023-03-01T03:35:58;101641.36;;;-3.50;78.65
77027;BME280;65956;52.986;17.490;2023-03-01T03:38:25;101637.19;;;-3.51;78.83
77027;BME280;65956;52.986;17.490;2023-03-01T03:41:07;101633.26;;;-3.51;79.00
77027;BME280;65956;52.986;17.490;2023-03-01T03:43:37;101634.35;;;-3.51;79.15
77027;BME280;65956;52.986;17.490;2023-03-01T03:46:06;101633.42;;;-3.51;79.10
77027;BME280;65956;52.986;17.490;2023-03-01T03:48:36;101624.96;;;-3.51;79.16
77027;BME280;65956;52.986;17.490;2023-03-01T03:51:04;101624.63;;;-3.52;79.05
77027;BME280;65956;52.986;17.490;2023-03-01T03:53:34;101625.09;;;-3.51;78.88
77027;BME280;65956;52.986;17.490;2023-03-01T03:56:01;101619.95;;;-3.50;79.23
77027;BME280;65956;52.986;17.490;2023-03-01T03:58:29;101617.52;;;-3.47;79.09
77027;BME280;65956;52.986;17.490;2023-03-01T04:00:57;101617.95;;;-3.45;78.83
77027;BME280;65956;52.986;17.490;2023-03-01T04:03:26;101609.81;;;-3.42;78.90
77027;BME280;65956;52.986;17.490;2023-03-01T04:05:56;101605.91;;;-3.42;78.74
77027;BME280;65956;52.986;17.490;2023-03-01T04:08:24;101610.79;;;-3.43;78.73
77027;BME280;65956;52.986;17.490;2023-03-01T04:10:57;101612.31;;;-3.46;78.84
77027;BME280;65956;52.986;17.490;2023-03-01T04:13:25;101609.55;;;-3.49;79.07
77027;BME280;65956;52.986;17.490;2023-03-01T04:15:54;101601.77;;;-3.51;79.24
77027;BME280;65956;52.986;17.490;2023-03-01T04:18:24;101600.73;;;-3.51;79.35
77027;BME280;65956;52.986;17.490;2023-03-01T04:20:53;101602.08;;;-3.52;79.32
77027;BME280;65956;52.986;17.490;2023-03-01T04:23:22;101602.07;;;-3.53;79.69
77027;BME280;65956;52.986;17.490;2023-03-01T04:25:57;101605.86;;;-3.55;79.41
77027;BME280;65956;52.986;17.490;2023-03-01T04:28:34;101609.10;;;-3.52;79.68
77027;BME280;65956;52.986;17.490;2023-03-01T04:31:08;101606.44;;;-3.49;79.32
77027;BME280;65956;52.986;17.490;2023-03-01T04:33:53;101602.91;;;-3.48;79.44
77027;BME280;65956;52.986;17.490;2023-03-01T04:36:24;101593.63;;;-3.46;79.39
77027;BME280;65956;52.986;17.490;2023-03-01T04:38:52;101587.74;;;-3.46;79.47
77027;BME280;65956;52.986;17.490;2023-03-01T04:41:22;101587.71;;;-3.45;79.28
77027;BME280;65956;52.986;17.490;2023-03-01T04:43:50;101587.34;;;-3.44;79.09
77027;BME280;65956;52.986;17.490;2023-03-01T04:46:20;101596.34;;;-3.43;79.51
77027;BME280;65956;52.986;17.490;2023-03-01T04:48:47;101604.02;;;-3.43;79.10
77027;BME280;65956;52.986;17.490;2023-03-01T04:51:16;101605.54;;;-3.45;79.40
77027;BME280;65956;52.986;17.490;2023-03-01T04:53:45;101604.23;;;-3.47;79.03
77027;BME280;65956;52.986;17.490;2023-03-01T04:56:13;101604.45;;;-3.48;78.97
77027;BME280;65956;52.986;17.490;2023-03-01T04:58:41;101599.92;;;-3.47;79.04
77027;BME280;65956;52.986;17.490;2023-03-01T05:01:11;101601.02;;;-3.45;79.37
77027;BME280;65956;52.986;17.490;2023-03-01T05:03:44;101598.14;;;-3.44;79.35
77027;BME280;65956;52.986;17.490;2023-03-01T05:06:12;101592.64;;;-3.43;79.00
77027;BME280;65956;52.986;17.490;2023-03-01T05:08:41;101592.66;;;-3.42;78.88
77027;BME280;65956;52.986;17.490;2023-03-01T05:11:09;101587.88;;;-3.41;79.27
77027;BME280;65956;52.986;17.490;2023-03-01T05:13:38;101586.38;;;-3.40;79.27
77027;BME280;65956;52.986;17.490;2023-03-01T05:16:06;101583.98;;;-3.40;79.32
77027;BME280;65956;52.986;17.490;2023-03-01T05:18:38;101582.23;;;-3.40;79.29
77027;BME280;65956;52.986;17.490;2023-03-01T05:21:08;101587.19;;;-3.43;79.40
77027;BME280;65956;52.986;17.490;2023-03-01T05:23:36;101586.52;;;-3.45;79.24
77027;BME280;65956;52.986;17.490;2023-03-01T05:26:05;101581.61;;;-3.48;79.58
77027;BME280;65956;52.986;17.490;2023-03-01T05:28:34;101580.52;;;-3.47;79.45
77027;BME280;65956;52.986;17.490;2023-03-01T05:31:01;101577.54;;;-3.47;79.53
77027;BME280;65956;52.986;17.490;2023-03-01T05:33:28;101580.66;;;-3.46;79.30
77027;BME280;65956;52.986;17.490;2023-03-01T05:35:59;101585.36;;;-3.46;79.45
77027;BME280;65956;52.986;17.490;2023-03-01T05:38:27;101588.92;;;-3.47;79.35
77027;BME280;65956;52.986;17.490;2023-03-01T05:40:54;101589.52;;;-3.48;79.47
77027;BME280;65956;52.986;17.490;2023-03-01T05:43:22;101591.21;;;-3.47;79.46
77027;BME280;65956;52.986;17.490;2023-03-01T05:45:49;101596.92;;;-3.44;79.60
77027;BME280;65956;52.986;17.490;2023-03-01T05:48:17;101596.55;;;-3.43;79.72
77027;BME280;65956;52.986;17.490;2023-03-01T05:50:46;101596.91;;;-3.42;79.57
77027;BME280;65956;52.986;17.490;2023-03-01T05:53:18;101598.30;;;-3.41;79.35
77027;BME280;65956;52.986;17.490;2023-03-01T05:55:47;101600.98;;;-3.39;79.39
77027;BME280;65956;52.986;17.490;2023-03-01T05:58:17;101597.60;;;-3.36;79.16
77027;BME280;65956;52.986;17.490;2023-03-01T06:00:47;101592.17;;;-3.32;79.07
77027;BME280;65956;52.986;17.490;2023-03-01T06:03:17;101594.29;;;-3.29;79.15
77027;BME280;65956;52.986;17.490;2023-03-01T06:05:44;101593.45;;;-3.26;79.13
77027;BME280;65956;52.986;17.490;2023-03-01T06:08:13;101596.01;;;-3.23;79.04
77027;BME280;65956;52.986;17.490;2023-03-01T06:10:40;101597.36;;;-3.21;79.04
77027;BME280;65956;52.986;17.490;2023-03-01T06:13:08;101597.98;;;-3.16;78.99
77027;BME280;65956;52.986;17.490;2023-03-01T06:15:36;101601.38;;;-3.06;78.80
77027;BME280;65956;52.986;17.490;2023-03-01T06:18:03;101597.88;;;-2.96;78.94
77027;BME280;65956;52.986;17.490;2023-03-01T06:20:31;101599.70;;;-2.87;78.81
77027;BME280;65956;52.986;17.490;2023-03-01T06:22:58;101598.93;;;-2.79;78.40
77027;BME280;65956;52.986;17.490;2023-03-01T06:25:27;101597.52;;;-2.74;78.60
77027;BME280;65956;52.986;17.490;2023-03-01T06:27:55;101600.69;;;-2.69;78.56
77027;BME280;65956;52.986;17.490;2023-03-01T06:30:25;101603.41;;;-2.66;78.30
77027;BME280;65956;52.986;17.490;2023-03-01T06:32:52;101603.54;;;-2.60;78.38
77027;BME280;65956;52.986;17.490;2023-03-01T06:35:28;101606.41;;;-2.52;78.21
77027;BME280;65956;52.986;17.490;2023-03-01T06:38:00;101604.98;;;-2.46;78.00
77027;BME280;65956;52.986;17.490;2023-03-01T06:40:31;101608.61;;;-2.43;77.96
77027;BME280;65956;52.986;17.490;2023-03-01T06:42:58;101605.11;;;-2.39;77.95
77027;BME280;65956;52.986;17.490;2023-03-01T06:45:26;101606.70;;;-2.34;77.90
77027;BME280;65956;52.986;17.490;2023-03-01T06:48:05;101609.14;;;-2.26;77.74
77027;BME280;65956;52.986;17.490;2023-03-01T06:50:35;101608.23;;;-2.18;77.96
77027;BME280;65956;52.986;17.490;2023-03-01T06:53:02;101607.89;;;-2.12;77.66
77027;BME280;65956;52.986;17.490;2023-03-01T06:55:30;101608.88;;;-2.05;77.56
77027;BME280;65956;52.986;17.490;2023-03-01T06:57:59;101610.92;;;-1.97;77.33
77027;BME280;65956;52.986;17.490;2023-03-01T07:00:28;101610.05;;;-1.92;77.35
77027;BME280;65956;52.986;17.490;2023-03-01T07:02:58;101611.27;;;-1.85;77.60
77027;BME280;65956;52.986;17.490;2023-03-01T07:05:26;101609.55;;;-1.76;77.34
77027;BME280;65956;52.986;17.490;2023-03-01T07:07:53;101611.59;;;-1.69;77.08
77027;BME280;65956;52.986;17.490;2023-03-01T07:10:23;101609.96;;;-1.62;77.09
77027;BME280;65956;52.986;17.490;2023-03-01T07:12:53;101608.11;;;-1.54;76.94
77027;BME280;65956;52.986;17.490;2023-03-01T07:15:21;101607.56;;;-1.48;76.93
77027;BME280;65956;52.986;17.490;2023-03-01T07:17:48;101606.33;;;-1.40;76.97
77027;BME280;65956;52.986;17.490;2023-03-01T07:20:18;101607.67;;;-1.29;76.70
77027;BME280;65956;52.986;17.490;2023-03-01T07:22:49;101612.70;;;-1.20;76.16
77027;BME280;65956;52.986;17.490;2023-03-01T07:25:17;101607.46;;;-1.12;76.25
77027;BME280;65956;52.986;17.490;2023-03-01T07:27:52;101611.05;;;-1.07;76.19
77027;BME280;65956;52.986;17.490;2023-03-01T07:30:20;101608.33;;;-0.99;76.16
77027;BME280;65956;52.986;17.490;2023-03-01T07:32:48;101607.39;;;-0.89;76.38
77027;BME280;65956;52.986;17.490;2023-03-01T07:35:15;101603.39;;;-0.79;75.95
77027;BME280;65956;52.986;17.490;2023-03-01T07:37:43;101600.88;;;-0.70;75.60
77027;BME280;65956;52.986;17.490;2023-03-01T07:40:11;101595.48;;;-0.62;75.60
77027;BME280;65956;52.986;17.490;2023-03-01T07:42:40;101587.38;;;-0.56;75.19
77027;BME280;65956;52.986;17.490;2023-03-01T07:45:08;101584.10;;;-0.49;74.99
77027;BME280;65956;52.986;17.490;2023-03-01T07:47:36;101585.12;;;-0.43;75.23
77027;BME280;65956;52.986;17.490;2023-03-01T07:50:04;101586.84;;;-0.36;74.94
77027;BME280;65956;52.986;17.490;2023-03-01T07:52:32;101582.54;;;-0.29;74.98
77027;BME280;65956;52.986;17.490;2023-03-01T07:54:59;101584.48;;;-0.22;74.96
77027;BME280;65956;52.986;17.490;2023-03-01T07:57:27;101580.66;;;-0.12;75.29
77027;BME280;65956;52.986;17.490;2023-03-01T07:59:54;101574.06;;;-0.03;74.97
77027;BME280;65956;52.986;17.490;2023-03-01T08:02:22;101570.30;;;0.11;74.86
77027;BME280;65956;52.986;17.490;2023-03-01T08:04:49;101573.16;;;0.23;74.51
77027;BME280;65956;52.986;17.490;2023-03-01T08:07:16;101573.95;;;0.34;74.41
77027;BME280;65956;52.986;17.490;2023-03-01T08:09:45;101576.52;;;0.45;74.23
77027;BME280;65956;52.986;17.490;2023-03-01T08:12:13;101575.70;;;0.54;73.80
77027;BME280;65956;52.986;17.490;2023-03-01T08:14:40;101572.57;;;0.59;73.59
77027;BME280;65956;52.986;17.490;2023-03-01T08:17:08;101575.58;;;0.61;73.44
77027;BME280;65956;52.986;17.490;2023-03-01T08:19:35;101578.33;;;0.66;73.22
77027;BME280;65956;52.986;17.490;2023-03-01T08:22:03;101575.58;;;0.75;73.26
77027;BME280;65956;52.986;17.490;2023-03-01T08:24:30;101578.70;;;0.81;73.03
77027;BME280;65956;52.986;17.490;2023-03-01T08:26:57;101581.58;;;0.92;73.08
77027;BME280;65956;52.986;17.490;2023-03-01T08:29:25;101582.11;;;1.00;72.64
77027;BME280;65956;52.986;17.490;2023-03-01T08:31:52;101584.52;;;1.06;72.20
77027;BME280;65956;52.986;17.490;2023-03-01T08:34:19;101582.96;;;1.14;72.38
77027;BME280;65956;52.986;17.490;2023-03-01T08:36:47;101583.43;;;1.23;72.17
77027;BME280;65956;52.986;17.490;2023-03-01T08:39:16;101572.36;;;1.31;71.68
77027;BME280;65956;52.986;17.490;2023-03-01T08:41:46;101571.63;;;1.41;72.06
77027;BME280;65956;52.986;17.490;2023-03-01T08:44:15;101567.48;;;1.47;71.68
77027;BME280;65956;52.986;17.490;2023-03-01T08:46:47;101565.00;;;1.49;71.42
77027;BME280;65956;52.986;17.490;2023-03-01T08:49:18;101565.20;;;1.53;71.07
77027;BME280;65956;52.986;17.490;2023-03-01T08:51:46;101565.62;;;1.57;71.03
77027;BME280;65956;52.986;17.490;2023-03-01T08:54:17;101572.64;;;1.72;71.27
77027;BME280;65956;52.986;17.490;2023-03-01T08:56:46;101573.46;;;1.91;71.13
77027;BME280;65956;52.986;17.490;2023-03-01T08:59:15;101576.59;;;2.03;70.33
77027;BME280;65956;52.986;17.490;2023-03-01T09:01:42;101573.56;;;2.12;69.84
77027;BME280;65956;52.986;17.490;2023-03-01T09:04:14;101568.20;;;2.15;69.60
77027;BME280;65956;52.986;17.490;2023-03-01T09:06:42;101567.98;;;2.15;69.48
77027;BME280;65956;52.986;17.490;2023-03-01T09:09:15;101569.08;;;2.15;69.45
77027;BME280;65956;52.986;17.490;2023-03-01T09:11:43;101568.64;;;2.14;69.44
77027;BME280;65956;52.986;17.490;2023-03-01T09:14:13;101568.34;;;2.19;69.85
77027;BME280;65956;52.986;17.490;2023-03-01T09:16:41;101571.52;;;2.29;69.71
77027;BME280;65956;52.986;17.490;2023-03-01T09:19:09;101575.05;;;2.42;69.69
77027;BME280;65956;52.986;17.490;2023-03-01T09:21:37;101570.65;;;2.54;69.55
77027;BME280;65956;52.986;17.490;2023-03-01T09:24:05;101567.80;;;2.66;69.47
77027;BME280;65956;52.986;17.490;2023-03-01T09:26:33;101566.39;;;2.76;69.63
77027;BME280;65956;52.986;17.490;2023-03-01T09:29:00;101566.49;;;2.87;69.55
77027;BME280;65956;52.986;17.490;2023-03-01T09:31:27;101569.00;;;3.01;69.72
77027;BME280;65956;52.986;17.490;2023-03-01T09:33:55;101563.98;;;3.15;69.26
77027;BME280;65956;52.986;17.490;2023-03-01T09:36:24;101567.02;;;3.27;68.95
77027;BME280;65956;52.986;17.490;2023-03-01T09:39:01;101566.73;;;3.33;68.36
77027;BME280;65956;52.986;17.490;2023-03-01T09:41:45;101576.09;;;3.36;68.51
77027;BME280;65956;52.986;17.490;2023-03-01T09:46:57;101569.20;;;3.59;68.80
77027;BME280;65956;52.986;17.490;2023-03-01T09:49:39;101563.44;;;3.74;68.85
77027;BME280;65956;52.986;17.490;2023-03-01T09:52:36;101563.16;;;3.87;68.34
77027;BME280;65956;52.986;17.490;2023-03-01T09:55:15;101556.45;;;3.93;67.97
77027;BME280;65956;52.986;17.490;2023-03-01T10:00:49;101551.40;;;4.14;68.74
77027;BME280;65956;52.986;17.490;2023-03-01T10:06:15;101550.33;;;4.27;67.69
77027;BME280;65956;52.986;17.490;2023-03-01T10:09:03;101549.06;;;4.29;67.79
77027;BME280;65956;52.986;17.490;2023-03-01T10:11:37;101548.05;;;4.34;68.18
77027;BME280;65956;52.986;17.490;2023-03-01T10:14:31;101548.76;;;4.38;68.14
77027;BME280;65956;52.986;17.490;2023-03-01T10:19:43;101547.71;;;4.71;67.77
77027;BME280;65956;52.986;17.490;2023-03-01T10:22:29;101537.56;;;4.79;67.45
77027;BME280;65956;52.986;17.490;2023-03-01T10:24:59;101536.42;;;4.90;67.65
77027;BME280;65956;52.986;17.490;2023-03-01T10:27:30;101532.04;;;4.96;66.98
77027;BME280;65956;52.986;17.490;2023-03-01T10:32:49;101525.13;;;5.00;67.32
77027;BME280;65956;52.986;17.490;2023-03-01T10:35:23;101525.75;;;5.08;66.84
77027;BME280;65956;52.986;17.490;2023-03-01T10:38:04;101521.02;;;5.13;67.23
77027;BME280;65956;52.986;17.490;2023-03-01T10:40:34;101523.17;;;5.21;67.40
77027;BME280;65956;52.986;17.490;2023-03-01T10:43:04;101523.86;;;5.36;67.12
77027;BME280;65956;52.986;17.490;2023-03-01T10:45:36;101517.05;;;5.39;66.66
77027;BME280;65956;52.986;17.490;2023-03-01T10:48:19;101520.44;;;5.49;66.99
77027;BME280;65956;52.986;17.490;2023-03-01T10:53:32;101521.61;;;5.66;66.55
77027;BME280;65956;52.986;17.490;2023-03-01T10:56:09;101527.23;;;5.77;66.50
77027;BME280;65956;52.986;17.490;2023-03-01T10:58:39;101523.34;;;5.89;66.41
77027;BME280;65956;52.986;17.490;2023-03-01T11:03:43;101515.81;;;6.08;66.08
77027;BME280;65956;52.986;17.490;2023-03-01T11:08:56;101502.05;;;6.23;66.26
77027;BME280;65956;52.986;17.490;2023-03-01T11:11:34;101498.40;;;6.37;66.11
77027;BME280;65956;52.986;17.490;2023-03-01T11:14:12;101492.48;;;6.49;65.85
77027;BME280;65956;52.986;17.490;2023-03-01T11:16:45;101492.40;;;6.52;65.33
77027;BME280;65956;52.986;17.490;2023-03-01T11:19:19;101486.48;;;6.63;65.79
77027;BME280;65956;52.986;17.490;2023-03-01T11:22:10;101483.89;;;6.73;65.22
77027;BME280;65956;52.986;17.490;2023-03-01T11:24:45;101481.75;;;6.88;65.76
77027;BME280;65956;52.986;17.490;2023-03-01T11:27:23;101471.14;;;7.07;65.09
77027;BME280;65956;52.986;17.490;2023-03-01T11:29:59;101467.90;;;7.24;64.41
77027;BME280;65956;52.986;17.490;2023-03-01T11:32:35;101465.30;;;7.40;63.83
77027;BME280;65956;52.986;17.490;2023-03-01T11:35:15;101461.92;;;7.52;63.15
77027;BME280;65956;52.986;17.490;2023-03-01T11:51:53;101444.91;;;8.71;59.93
77027;BME280;65956;52.986;17.490;2023-03-01T11:57:38;101443.09;;;8.86;58.45
77027;BME280;65956;52.986;17.490;2023-03-01T12:03:30;101448.45;;;9.00;57.34
77027;BME280;65956;52.986;17.490;2023-03-01T12:09:06;101452.48;;;9.05;57.42
77027;BME280;65956;52.986;17.490;2023-03-01T12:12:04;101447.79;;;9.11;57.84
77027;BME280;65956;52.986;17.490;2023-03-01T12:17:47;101439.58;;;9.27;55.84
77027;BME280;65956;52.986;17.490;2023-03-01T12:20:51;101441.44;;;9.25;56.33
77027;BME280;65956;52.986;17.490;2023-03-01T12:24:03;101433.52;;;9.50;56.46
77027;BME280;65956;52.986;17.490;2023-03-01T12:32:29;101420.45;;;9.59;55.67
77027;BME280;65956;52.986;17.490;2023-03-01T12:38:40;101416.46;;;9.75;55.92
77027;BME280;65956;52.986;17.490;2023-03-01T12:41:35;101414.98;;;11.09;54.01
77027;BME280;65956;52.986;17.490;2023-03-01T12:43:44;101412.56;;;13.90;46.53
77027;BME280;65956;52.986;17.490;2023-03-01T12:46:36;101409.77;;;15.44;44.18
77027;BME280;65956;52.986;17.490;2023-03-01T12:52:39;101402.82;;;18.42;38.09
77027;BME280;65956;52.986;17.490;2023-03-01T12:55:47;101405.76;;;19.04;37.50
77027;BME280;65956;52.986;17.490;2023-03-01T13:03:56;101399.94;;;21.36;33.83
77027;BME280;65956;52.986;17.490;2023-03-01T13:11:55;101409.09;;;20.97;31.25
77027;BME280;65956;52.986;17.490;2023-03-01T13:16:53;101404.42;;;21.05;31.29
77027;BME280;65956;52.986;17.490;2023-03-01T13:19:25;101397.77;;;21.03;31.48
77027;BME280;65956;52.986;17.490;2023-03-01T13:21:56;101389.41;;;21.26;32.62
77027;BME280;65956;52.986;17.490;2023-03-01T13:29:56;101380.89;;;20.42;31.41
77027;BME280;65956;52.986;17.490;2023-03-01T13:32:29;101387.88;;;20.23;31.85
77027;BME280;65956;52.986;17.490;2023-03-01T13:35:01;101384.80;;;19.44;32.48
77027;BME280;65956;52.986;17.490;2023-03-01T13:37:34;101382.22;;;18.60;33.11
77027;BME280;65956;52.986;17.490;2023-03-01T13:42:50;101383.15;;;17.15;35.40
77027;BME280;65956;52.986;17.490;2023-03-01T13:45:41;101375.59;;;17.16;35.86
77027;BME280;65956;52.986;17.490;2023-03-01T13:48:17;101375.31;;;17.89;34.84
77027;BME280;65956;52.986;17.490;2023-03-01T13:50:57;101376.60;;;18.81;34.02
77027;BME280;65956;52.986;17.490;2023-03-01T13:53:30;101370.05;;;19.26;32.93
77027;BME280;65956;52.986;17.490;2023-03-01T13:56:03;101370.36;;;19.42;32.46
77027;BME280;65956;52.986;17.490;2023-03-01T13:58:54;101366.10;;;18.69;32.25
77027;BME280;65956;52.986;17.490;2023-03-01T14:01:33;101362.74;;;18.12;33.58
77027;BME280;65956;52.986;17.490;2023-03-01T14:06:46;101363.40;;;17.47;34.70
77027;BME280;65956;52.986;17.490;2023-03-01T14:09:24;101365.21;;;16.96;35.18
77027;BME280;65956;52.986;17.490;2023-03-01T14:19:43;101353.06;;;15.73;36.94
77027;BME280;65956;52.986;17.490;2023-03-01T14:22:33;101353.67;;;15.71;37.18
77027;BME280;65956;52.986;17.490;2023-03-01T14:25:24;101351.89;;;16.16;36.63
77027;BME280;65956;52.986;17.490;2023-03-01T14:28:04;101351.09;;;16.55;36.19
77027;BME280;65956;52.986;17.490;2023-03-01T14:30:51;101345.59;;;16.95;35.59
77027;BME280;65956;52.986;17.490;2023-03-01T14:38:30;101331.61;;;18.01;34.10
77027;BME280;65956;52.986;17.490;2023-03-01T14:41:02;101327.30;;;18.12;33.56
77027;BME280;65956;52.986;17.490;2023-03-01T14:43:30;101328.50;;;17.91;33.79
77027;BME280;65956;52.986;17.490;2023-03-01T14:45:59;101327.63;;;17.31;34.15
77027;BME280;65956;52.986;17.490;2023-03-01T14:48:27;101321.94;;;17.22;34.92
77027;BME280;65956;52.986;17.490;2023-03-01T14:50:56;101318.20;;;17.42;34.44
77027;BME280;65956;52.986;17.490;2023-03-01T14:53:29;101317.57;;;17.04;34.63
77027;BME280;65956;52.986;17.490;2023-03-01T14:56:01;101321.85;;;16.64;34.80
77027;BME280;65956;52.986;17.490;2023-03-01T14:58:33;101320.45;;;16.82;35.10